createdAt,value
2023-05-03T00:01:30.546Z,2.30
2023-05-03T00:03:58.193Z,2.47
2023-05-03T00:06:26.863Z,2.20
2023-05-03T00:08:54.608Z,2.33
2023-05-03T00:11:23.727Z,2.00
2023-05-03T00:13:51.439Z,2.45
2023-05-03T00:16:20.075Z,2.53
2023-05-03T00:18:49.132Z,2.10
2023-05-03T00:21:17.093Z,2.45
2023-05-03T00:23:44.798Z,2.60
2023-05-03T00:26:12.480Z,2.63
2023-05-03T00:28:41.566Z,2.78
2023-05-03T00:31:09.720Z,2.73
2023-05-03T00:33:37.517Z,3.00
2023-05-03T00:36:09.429Z,2.88
2023-05-03T00:38:37.176Z,2.90
2023-05-03T00:41:04.991Z,2.97
2023-05-03T00:43:32.965Z,3.08
2023-05-03T00:46:15.219Z,2.28
2023-05-03T00:48:44.873Z,3.40
2023-05-03T00:51:14.617Z,3.25
2023-05-03T00:53:42.666Z,2.50
2023-05-03T00:56:11.259Z,3.15
2023-05-03T00:58:40.486Z,2.78
2023-05-03T01:01:09.894Z,2.80
2023-05-03T01:03:41.491Z,2.58
2023-05-03T01:06:12.839Z,3.00
2023-05-03T01:08:46.114Z,2.92
2023-05-03T01:11:16.187Z,3.25
2023-05-03T01:13:50.885Z,2.97
2023-05-03T01:16:44.393Z,2.80
2023-05-03T01:19:20.159Z,2.50
2023-05-03T01:21:49.841Z,3.30
2023-05-03T01:24:20.108Z,3.30
2023-05-03T01:26:49.212Z,3.35
2023-05-03T01:29:16.906Z,3.22
2023-05-03T01:31:47.542Z,3.42
2023-05-03T01:34:23.964Z,3.03
2023-05-03T01:36:52.037Z,3.70
2023-05-03T01:39:22.600Z,3.33
2023-05-03T01:41:52.512Z,3.17
2023-05-03T01:44:21.053Z,3.20
2023-05-03T01:46:49.764Z,3.35
2023-05-03T01:49:17.460Z,3.28
2023-05-03T01:51:45.139Z,3.53
2023-05-03T01:54:12.924Z,3.53
2023-05-03T01:56:41.156Z,3.45
2023-05-03T01:59:10.808Z,3.57
2023-05-03T02:01:38.616Z,3.17
2023-05-03T02:04:06.397Z,3.15
2023-05-03T02:06:34.128Z,3.47
2023-05-03T02:09:02.056Z,3.25
2023-05-03T02:11:29.698Z,3.28
2023-05-03T02:16:57.712Z,3.45
2023-05-03T02:19:25.456Z,3.70
2023-05-03T02:21:53.562Z,3.70
2023-05-03T02:24:21.285Z,3.23
2023-05-03T02:26:48.945Z,3.67
2023-05-03T02:29:16.620Z,3.50
2023-05-03T02:31:44.459Z,3.50
2023-05-03T02:34:13.603Z,3.83
2023-05-03T02:36:41.346Z,3.88
2023-05-03T02:39:09.052Z,4.00
2023-05-03T02:41:36.720Z,3.90
2023-05-03T02:44:04.539Z,4.10
2023-05-03T02:46:32.249Z,4.38
2023-05-03T02:48:59.980Z,3.92
2023-05-03T02:51:29.671Z,4.53
2023-05-03T02:53:57.381Z,3.45
2023-05-03T02:56:26.611Z,3.53
2023-05-03T02:58:54.348Z,4.22
2023-05-03T03:01:22.344Z,4.10
2023-05-03T03:03:50.408Z,3.58
2023-05-03T03:06:18.339Z,3.20
2023-05-03T03:08:47.469Z,3.70
2023-05-03T03:11:15.600Z,3.80
2023-05-03T03:13:43.332Z,4.18
2023-05-03T03:16:11.638Z,4.25
2023-05-03T03:18:39.419Z,3.83
2023-05-03T03:21:07.254Z,4.05
2023-05-03T03:23:34.919Z,4.03
2023-05-03T03:26:04.091Z,3.92
2023-05-03T03:28:32.592Z,3.97
2023-05-03T03:31:00.353Z,3.42
2023-05-03T03:33:28.093Z,3.55
2023-05-03T03:35:55.768Z,3.33
2023-05-03T03:38:23.421Z,4.05
2023-05-03T03:40:52.179Z,3.95
2023-05-03T03:43:21.321Z,4.43
2023-05-03T03:45:49.031Z,4.47
2023-05-03T03:48:17.011Z,3.90
2023-05-03T03:50:44.874Z,4.03
2023-05-03T03:53:12.707Z,3.28
2023-05-03T03:55:40.495Z,3.80
2023-05-03T03:58:08.395Z,3.67
2023-05-03T04:00:38.033Z,3.70
2023-05-03T04:03:07.783Z,3.87
2023-05-03T04:05:35.877Z,4.45
2023-05-03T04:08:03.621Z,4.70
2023-05-03T04:10:31.285Z,4.15
2023-05-03T04:12:58.948Z,4.47
2023-05-03T04:15:26.785Z,4.60
2023-05-03T04:17:55.957Z,4.30
2023-05-03T04:20:24.006Z,4.70
2023-05-03T04:22:52.013Z,4.82
2023-05-03T04:25:19.960Z,4.57
2023-05-03T04:27:48.916Z,4.72
2023-05-03T04:30:17.563Z,4.45
2023-05-03T04:32:45.333Z,5.03
2023-05-03T04:35:14.417Z,4.57
2023-05-03T04:37:42.797Z,4.93
2023-05-03T04:40:12.482Z,4.35
2023-05-03T04:42:41.167Z,4.63
2023-05-03T04:45:10.932Z,4.50
2023-05-03T04:47:38.685Z,3.95
2023-05-03T04:50:08.616Z,5.47
2023-05-03T04:52:37.857Z,4.57
2023-05-03T04:55:06.492Z,4.63
2023-05-03T04:57:35.170Z,4.85
2023-05-03T05:00:04.532Z,6.15
2023-05-03T05:02:32.426Z,4.75
2023-05-03T05:05:00.206Z,4.60
2023-05-03T05:07:27.868Z,4.80
2023-05-03T05:09:56.972Z,5.53
2023-05-03T05:12:24.698Z,5.60
2023-05-03T05:14:52.355Z,6.03
2023-05-03T05:17:20.333Z,4.82
2023-05-03T05:19:48.078Z,4.97
2023-05-03T05:22:35.980Z,5.00
2023-05-03T05:25:05.812Z,4.78
2023-05-03T05:27:33.605Z,4.97
2023-05-03T05:30:01.594Z,5.65
2023-05-03T05:32:30.006Z,5.30
2023-05-03T05:34:57.818Z,4.97
2023-05-03T05:37:26.196Z,5.40
2023-05-03T05:39:54.418Z,5.83
2023-05-03T05:42:23.618Z,5.43
2023-05-03T05:44:52.438Z,5.60
2023-05-03T05:47:20.358Z,5.63
2023-05-03T05:49:48.299Z,5.85
2023-05-03T05:52:18.262Z,5.40
2023-05-03T05:54:45.959Z,5.05
2023-05-03T05:57:14.154Z,5.35
2023-05-03T05:59:43.282Z,5.05
2023-05-03T06:02:16.975Z,5.50
2023-05-03T06:04:45.010Z,5.20
2023-05-03T06:07:12.801Z,5.03
2023-05-03T06:09:40.497Z,5.35
2023-05-03T06:12:08.501Z,5.07
2023-05-03T06:14:36.512Z,5.18
2023-05-03T06:17:05.707Z,4.93
2023-05-03T06:19:33.435Z,4.70
2023-05-03T06:22:01.154Z,4.45
2023-05-03T06:24:31.571Z,4.80
2023-05-03T06:27:00.197Z,4.10
2023-05-03T06:29:28.401Z,4.38
2023-05-03T06:31:56.134Z,4.20
2023-05-03T06:34:25.281Z,3.67
2023-05-03T06:36:53.179Z,3.20
2023-05-03T06:39:21.052Z,3.15
2023-05-03T06:41:48.861Z,3.20
2023-05-03T06:44:16.557Z,3.00
2023-05-03T06:46:44.335Z,3.40
2023-05-03T06:49:12.226Z,2.55
2023-05-03T06:51:41.444Z,2.65
2023-05-03T06:54:09.895Z,2.97
2023-05-03T06:56:38.159Z,3.47
2023-05-03T06:59:16.566Z,2.72
2023-05-03T07:01:44.363Z,3.08
2023-05-03T07:04:12.389Z,2.95
2023-05-03T07:06:55.526Z,2.10
2023-05-03T07:09:39.320Z,2.50
2023-05-03T07:12:10.353Z,1.88
2023-05-03T07:14:38.382Z,2.37
2023-05-03T07:17:06.109Z,2.05
2023-05-03T07:19:33.946Z,1.83
2023-05-03T07:22:03.621Z,2.17
2023-05-03T07:24:31.324Z,2.50
2023-05-03T07:26:59.260Z,2.00
2023-05-03T07:29:45.469Z,1.92
2023-05-03T07:32:13.519Z,1.63
2023-05-03T07:34:41.404Z,2.00
2023-05-03T07:37:10.628Z,1.85
2023-05-03T07:39:38.362Z,1.88
2023-05-03T07:42:06.356Z,1.80
2023-05-03T07:44:34.075Z,2.20
2023-05-03T07:47:01.952Z,1.80
2023-05-03T07:49:30.971Z,1.60
2023-05-03T07:51:59.884Z,2.25
2023-05-03T07:54:29.010Z,1.58
2023-05-03T07:59:45.212Z,1.40
2023-05-03T08:02:13.048Z,1.27
2023-05-03T08:04:41.313Z,1.10
2023-05-03T08:07:09.684Z,1.00
2023-05-03T08:09:38.755Z,1.45
2023-05-03T08:12:07.026Z,1.47
2023-05-03T08:14:34.977Z,2.27
2023-05-03T08:17:04.793Z,1.48
2023-05-03T08:19:34.536Z,1.60
2023-05-03T08:22:03.313Z,1.75
2023-05-03T08:24:31.104Z,1.83
2023-05-03T08:27:00.284Z,1.60
2023-05-03T08:29:27.962Z,1.67
2023-05-03T08:32:14.312Z,1.77
2023-05-03T08:34:42.294Z,1.65
2023-05-03T08:37:10.031Z,1.92
2023-05-03T08:39:37.715Z,1.92
2023-05-03T08:42:09.686Z,1.80
2023-05-03T08:44:39.576Z,1.80
2023-05-03T08:47:10.503Z,1.40
2023-05-03T08:49:38.990Z,2.00
2023-05-03T08:52:07.724Z,1.60
2023-05-03T08:54:35.482Z,1.70
2023-05-03T08:57:03.174Z,1.60
2023-05-03T09:02:18.215Z,1.80
2023-05-03T09:04:46.559Z,1.45
2023-05-03T09:07:18.521Z,1.88
2023-05-03T09:09:47.257Z,1.73
2023-05-03T09:12:36.571Z,1.85
2023-05-03T09:15:06.489Z,1.83
2023-05-03T09:17:35.720Z,1.55
2023-05-03T09:20:03.764Z,1.90
2023-05-03T09:22:34.015Z,1.75
2023-05-03T09:25:02.292Z,1.83
2023-05-03T09:27:38.905Z,1.67
2023-05-03T09:30:36.884Z,1.50
2023-05-03T09:33:22.077Z,1.38
2023-05-03T09:35:57.487Z,1.83
2023-05-03T09:38:37.783Z,1.40
2023-05-03T09:41:07.023Z,1.50
2023-05-03T09:43:34.998Z,1.73
2023-05-03T09:46:10.050Z,2.20
2023-05-03T09:48:39.792Z,1.40
2023-05-03T09:51:08.106Z,1.70
2023-05-03T09:53:36.876Z,1.40
2023-05-03T09:56:06.103Z,1.25
2023-05-03T09:58:35.289Z,1.38
2023-05-03T10:01:03.256Z,1.33
2023-05-03T10:06:24.553Z,1.40
2023-05-03T10:08:54.708Z,1.40
2023-05-03T10:11:25.370Z,1.63
2023-05-03T10:13:53.094Z,1.20
2023-05-03T10:16:24.588Z,1.30
2023-05-03T10:18:55.560Z,1.40
2023-05-03T10:21:33.167Z,1.33
2023-05-03T10:24:16.386Z,1.33
2023-05-03T10:26:46.445Z,1.60
2023-05-03T10:29:49.357Z,1.50
2023-05-03T10:35:53.217Z,1.70
2023-05-03T10:38:24.256Z,1.75
2023-05-03T10:40:52.517Z,2.03
2023-05-03T10:43:42.451Z,1.63
2023-05-03T10:46:12.081Z,1.77
2023-05-03T10:48:39.833Z,1.20
2023-05-03T10:51:33.604Z,1.50
2023-05-03T10:54:02.703Z,1.20
2023-05-03T10:56:30.536Z,1.40
2023-05-03T10:58:58.998Z,1.67
2023-05-03T11:01:28.345Z,1.67
2023-05-03T11:04:03.583Z,1.58
2023-05-03T11:06:33.706Z,1.50
2023-05-03T11:09:04.869Z,1.60
2023-05-03T11:11:32.719Z,1.40
2023-05-03T11:14:00.452Z,1.50
2023-05-03T11:16:28.295Z,1.42
2023-05-03T11:18:56.300Z,1.40
2023-05-03T11:21:24.514Z,1.40
2023-05-03T11:23:52.205Z,1.50
2023-05-03T11:26:26.302Z,1.40
2023-05-03T11:28:55.199Z,1.80
2023-05-03T11:31:23.383Z,1.70
2023-05-03T11:33:51.534Z,1.63
2023-05-03T11:36:37.443Z,1.80
2023-05-03T11:39:06.856Z,1.52
2023-05-03T11:41:36.893Z,1.80
2023-05-03T11:44:16.324Z,1.65
2023-05-03T11:46:45.626Z,1.80
2023-05-03T11:49:18.892Z,1.80
2023-05-03T11:54:33.407Z,1.55
2023-05-03T11:57:13.450Z,1.80
2023-05-03T11:59:41.902Z,1.65
2023-05-03T12:02:11.797Z,1.60
2023-05-03T12:04:42.953Z,1.83
2023-05-03T12:07:13.380Z,1.63
2023-05-03T12:09:44.738Z,1.52
2023-05-03T12:12:26.211Z,1.70
2023-05-03T12:14:59.285Z,1.90
2023-05-03T12:17:38.814Z,2.20
2023-05-03T12:21:03.058Z,2.17
2023-05-03T12:23:09.854Z,2.00
2023-05-03T12:25:39.558Z,1.95
2023-05-03T12:28:19.422Z,2.00
2023-05-03T12:30:48.996Z,2.70
2023-05-03T12:33:22.048Z,1.85
2023-05-03T12:35:53.445Z,2.13
2023-05-03T12:38:23.912Z,2.20
2023-05-03T12:40:53.263Z,2.20
2023-05-03T12:43:22.856Z,2.47
2023-05-03T12:46:01.208Z,2.20
2023-05-03T12:48:38.722Z,1.65
2023-05-03T12:51:19.457Z,1.80
2023-05-03T12:53:54.121Z,2.10
2023-05-03T12:56:40.133Z,1.70
2023-05-03T13:06:43.862Z,1.83
2023-05-03T13:09:19.149Z,1.95
2023-05-03T13:11:50.206Z,1.45
2023-05-03T13:14:19.595Z,1.75
2023-05-03T13:16:47.757Z,1.88
2023-05-03T13:19:16.582Z,1.60
2023-05-03T13:21:44.217Z,1.80
2023-05-03T13:24:11.929Z,1.63
2023-05-03T13:26:39.535Z,1.50
2023-05-03T13:29:07.493Z,1.50
2023-05-03T13:31:36.565Z,1.50
2023-05-03T13:34:04.404Z,1.58
2023-05-03T13:36:33.399Z,1.88
2023-05-03T13:39:01.898Z,1.80
2023-05-03T13:41:29.634Z,1.73
2023-05-03T13:43:57.464Z,1.70
2023-05-03T13:46:25.402Z,1.50
2023-05-03T13:48:56.416Z,1.63
2023-05-03T13:51:25.088Z,1.67
2023-05-03T13:53:53.122Z,1.60
2023-05-03T13:56:21.670Z,1.97
2023-05-03T13:58:49.433Z,1.90
2023-05-03T14:01:17.933Z,1.42
2023-05-03T14:03:45.961Z,1.55
2023-05-03T14:06:15.680Z,1.90
2023-05-03T14:08:43.586Z,1.48
2023-05-03T14:11:14.103Z,1.23
2023-05-03T14:13:55.468Z,1.70
2023-05-03T14:18:55.698Z,1.50
2023-05-03T14:21:25.050Z,1.65
2023-05-03T14:23:54.174Z,1.40
2023-05-03T14:26:23.993Z,1.40
2023-05-03T14:28:52.014Z,1.50
2023-05-03T14:31:19.758Z,1.38
2023-05-03T14:33:48.120Z,2.00
2023-05-03T14:36:15.872Z,1.70
2023-05-03T14:38:44.940Z,1.60
2023-05-03T14:41:12.723Z,1.50
2023-05-03T14:43:40.430Z,1.50
2023-05-03T14:46:09.075Z,1.25
2023-05-03T14:48:38.121Z,1.50
2023-05-03T14:51:06.553Z,1.40
2023-05-03T14:53:35.630Z,1.43
2023-05-03T14:56:04.981Z,1.35
2023-05-03T14:58:33.225Z,1.60
2023-05-03T15:01:01.179Z,1.80
2023-05-03T15:03:28.968Z,1.48
2023-05-03T15:05:56.683Z,1.85
2023-05-03T15:08:24.484Z,1.60
2023-05-03T15:10:52.532Z,1.60
2023-05-03T15:13:22.206Z,1.60
2023-05-03T15:15:50.058Z,1.50
2023-05-03T15:18:20.306Z,1.73
2023-05-03T15:20:48.110Z,1.60
2023-05-03T15:23:16.055Z,1.30
2023-05-03T15:25:43.776Z,1.50
2023-05-03T15:28:11.531Z,1.83
2023-05-03T15:30:40.622Z,1.70
2023-05-03T15:33:10.974Z,1.42
2023-05-03T15:35:41.592Z,1.88
2023-05-03T15:38:09.575Z,1.60
2023-05-03T15:40:52.593Z,1.65
2023-05-03T15:43:20.206Z,1.70
2023-05-03T15:45:49.422Z,1.70
2023-05-03T15:48:17.171Z,1.50
2023-05-03T15:50:44.908Z,1.50
2023-05-03T15:53:12.565Z,1.65
2023-05-03T15:55:40.308Z,1.77
2023-05-03T15:58:09.276Z,1.60
2023-05-03T16:00:46.889Z,1.75
2023-05-03T16:03:15.992Z,1.60
2023-05-03T16:05:44.951Z,1.70
2023-05-03T16:08:12.811Z,1.60
2023-05-03T16:10:40.609Z,1.70
2023-05-03T16:13:14.636Z,1.90
2023-05-03T16:15:42.565Z,1.70
2023-05-03T16:18:11.707Z,1.67
2023-05-03T16:20:41.346Z,1.60
2023-05-03T16:23:09.273Z,1.60
2023-05-03T16:25:37.020Z,1.50
2023-05-03T16:28:05.349Z,1.63
2023-05-03T16:30:33.712Z,1.50
2023-05-03T16:33:02.362Z,1.60
2023-05-03T16:35:30.291Z,1.90
2023-05-03T16:37:59.356Z,1.77
2023-05-03T16:40:40.590Z,1.80
2023-05-03T16:43:08.788Z,1.50
2023-05-03T16:45:37.641Z,1.73
2023-05-03T16:48:07.955Z,1.90
2023-05-03T16:50:37.197Z,2.10
2023-05-03T16:53:06.285Z,2.20
2023-05-03T16:55:33.940Z,1.70
2023-05-03T16:58:01.675Z,1.92
2023-05-03T17:00:30.436Z,1.83
2023-05-03T17:02:58.212Z,2.13
2023-05-03T17:05:32.729Z,2.13
2023-05-03T17:08:01.053Z,2.23
2023-05-03T17:10:31.507Z,2.40
2023-05-03T17:13:01.123Z,2.30
2023-05-03T17:15:29.076Z,2.38
2023-05-03T17:17:56.754Z,2.42
2023-05-03T17:20:24.399Z,2.58
2023-05-03T17:22:52.146Z,2.97
2023-05-03T17:25:20.051Z,2.00
2023-05-03T17:27:51.718Z,2.47
2023-05-03T17:30:21.282Z,2.63
2023-05-03T17:32:49.563Z,2.58
2023-05-03T17:35:17.346Z,1.95
2023-05-03T17:37:46.197Z,2.30
2023-05-03T17:40:14.531Z,2.25
2023-05-03T17:42:42.187Z,2.22
2023-05-03T17:45:12.771Z,2.15
2023-05-03T17:47:40.438Z,2.47
2023-05-03T17:50:09.989Z,2.33
2023-05-03T17:52:37.795Z,2.30
2023-05-03T17:55:06.459Z,2.33
2023-05-03T17:57:34.128Z,2.63
2023-05-03T18:00:02.166Z,2.40
2023-05-03T18:02:40.957Z,2.40
2023-05-03T18:05:09.354Z,2.70
2023-05-03T18:07:37.120Z,2.50
2023-05-03T18:10:07.140Z,2.33
2023-05-03T18:12:34.951Z,2.80
2023-05-03T18:15:02.641Z,2.22
2023-05-03T18:17:31.100Z,2.67
2023-05-03T18:20:00.597Z,2.50
2023-05-03T18:22:28.947Z,2.40
2023-05-03T18:24:59.087Z,2.65
2023-05-03T18:27:26.760Z,2.40
2023-05-03T18:29:54.543Z,2.60
2023-05-03T18:32:24.253Z,2.50
2023-05-03T18:34:52.114Z,2.70
2023-05-03T18:37:24.434Z,2.45
2023-05-03T18:39:52.660Z,2.13
2023-05-03T18:42:24.164Z,2.90
2023-05-03T18:44:52.128Z,2.55
2023-05-03T18:47:21.498Z,2.53
2023-05-03T18:49:52.828Z,3.00
2023-05-03T18:52:22.387Z,2.67
2023-05-03T18:54:50.973Z,2.63
2023-05-03T18:57:18.800Z,2.60
2023-05-03T18:59:59.319Z,2.87
2023-05-03T19:02:30.750Z,2.85
2023-05-03T19:04:58.916Z,3.00
2023-05-03T19:07:28.061Z,2.65
2023-05-03T19:09:56.050Z,2.90
2023-05-03T19:12:23.801Z,2.97
2023-05-03T19:14:51.492Z,3.35
2023-05-03T19:17:19.288Z,3.15
2023-05-03T19:19:48.956Z,3.80
2023-05-03T19:22:16.672Z,3.20
2023-05-03T19:24:46.020Z,3.40
2023-05-03T19:27:13.790Z,3.33
2023-05-03T19:29:41.460Z,2.95
2023-05-03T19:32:09.441Z,3.17
2023-05-03T19:34:37.212Z,2.90
2023-05-03T19:37:05.526Z,2.97
2023-05-03T19:39:35.639Z,2.90
2023-05-03T19:42:05.015Z,3.03
2023-05-03T19:44:33.402Z,3.80
2023-05-03T19:47:01.229Z,3.70
2023-05-03T19:49:29.145Z,3.30
2023-05-03T19:51:56.829Z,3.20
2023-05-03T19:54:24.582Z,2.83
2023-05-03T19:56:52.563Z,3.40
2023-05-03T19:59:21.647Z,3.53
2023-05-03T20:01:49.573Z,2.95
2023-05-03T20:04:17.340Z,3.63
2023-05-03T20:06:45.109Z,2.80
2023-05-03T20:09:12.868Z,2.93
2023-05-03T20:14:16.630Z,3.20
2023-05-03T20:16:45.854Z,3.50
2023-05-03T20:19:13.867Z,3.55
2023-05-03T20:21:41.728Z,3.27
2023-05-03T20:24:11.259Z,2.92
2023-05-03T20:26:39.625Z,2.87
2023-05-03T20:29:07.334Z,3.15
2023-05-03T20:31:35.413Z,2.92
2023-05-03T20:34:04.554Z,2.80
2023-05-03T20:36:32.906Z,3.05
2023-05-03T20:39:00.692Z,3.05
2023-05-03T20:41:28.620Z,2.83
2023-05-03T20:43:56.365Z,2.95
2023-05-03T20:46:24.391Z,2.95
2023-05-03T20:48:52.215Z,2.88
2023-05-03T20:51:21.616Z,3.00
2023-05-03T20:53:49.357Z,2.88
2023-05-03T20:56:17.537Z,3.10
2023-05-03T20:58:46.263Z,3.17
2023-05-03T21:01:14.425Z,3.10
2023-05-03T21:03:42.466Z,2.70
2023-05-03T21:06:10.445Z,2.90
2023-05-03T21:08:40.031Z,3.20
2023-05-03T21:11:08.429Z,3.30
2023-05-03T21:13:36.208Z,2.83
2023-05-03T21:16:04.298Z,3.20
2023-05-03T21:18:32.057Z,3.10
2023-05-03T21:20:59.762Z,3.50
2023-05-03T21:23:27.602Z,3.10
2023-05-03T21:25:57.126Z,3.00
2023-05-03T21:28:24.818Z,3.15
2023-05-03T21:30:55.063Z,3.45
2023-05-03T21:33:23.473Z,3.17
2023-05-03T21:35:51.209Z,3.30
2023-05-03T21:38:37.368Z,3.30
2023-05-03T21:41:07.691Z,3.50
2023-05-03T21:43:36.737Z,3.88
2023-05-03T21:46:07.718Z,3.47
2023-05-03T21:48:35.557Z,3.53
2023-05-03T21:51:03.537Z,3.30
2023-05-03T21:53:31.987Z,3.20
2023-05-03T21:55:59.715Z,3.10
2023-05-03T22:01:04.234Z,3.45
2023-05-03T22:03:32.245Z,3.30
2023-05-03T22:06:09.425Z,3.40
2023-05-03T22:08:37.556Z,3.80
2023-05-03T22:11:06.908Z,3.42
2023-05-03T22:13:50.268Z,3.90
2023-05-03T22:16:27.544Z,3.83
2023-05-03T22:18:55.733Z,4.00
2023-05-03T22:21:23.444Z,4.07
2023-05-03T22:23:51.241Z,4.15
2023-05-03T22:26:18.969Z,4.03
2023-05-03T22:28:46.701Z,4.82
2023-05-03T22:31:14.786Z,3.95
2023-05-03T22:33:45.042Z,4.00
2023-05-03T22:36:14.550Z,4.18
2023-05-03T22:38:43.239Z,3.58
2023-05-03T22:41:11.950Z,3.92
2023-05-03T22:43:39.724Z,4.13
2023-05-03T22:46:07.894Z,3.90
2023-05-03T22:48:36.231Z,3.65
2023-05-03T22:51:06.230Z,4.50
2023-05-03T22:53:33.996Z,4.20
2023-05-03T22:56:04.320Z,4.35
2023-05-03T22:58:32.268Z,4.47
2023-05-03T23:01:00.231Z,4.07
2023-05-03T23:03:28.184Z,3.87
2023-05-03T23:05:56.178Z,4.18
2023-05-03T23:08:25.374Z,3.65
2023-05-03T23:10:54.194Z,4.30
2023-05-03T23:13:44.441Z,4.03
2023-05-03T23:16:10.703Z,3.88
2023-05-03T23:21:21.526Z,4.30
2023-05-03T23:23:50.626Z,3.65
2023-05-03T23:26:18.301Z,4.07
2023-05-03T23:28:46.366Z,4.18
2023-05-03T23:31:14.552Z,4.10
2023-05-03T23:33:42.801Z,4.05
2023-05-03T23:36:10.713Z,3.60
2023-05-03T23:38:38.513Z,4.00
2023-05-03T23:41:07.594Z,4.55
2023-05-03T23:43:35.341Z,3.50
2023-05-03T23:46:03.063Z,4.18
2023-05-03T23:48:31.549Z,3.90
2023-05-03T23:50:59.405Z,4.20
2023-05-03T23:53:27.085Z,4.10
2023-05-03T23:55:54.827Z,3.83
2023-05-03T23:58:23.962Z,3.60
